createdAt,value
2019-02-19T00:00:05.203Z,-0.70
2019-02-19T00:02:33.271Z,-0.80
2019-02-19T00:04:59.419Z,-1.00
2019-02-19T00:07:25.716Z,-1.00
2019-02-19T00:09:51.875Z,-1.00
2019-02-19T00:12:18.048Z,-1.00
2019-02-19T00:14:44.239Z,-1.10
2019-02-19T00:17:10.400Z,-1.10
2019-02-19T00:19:36.615Z,-1.10
2019-02-19T00:22:03.264Z,-1.20
2019-02-19T00:24:29.419Z,-1.20
2019-02-19T00:26:55.611Z,-1.20
2019-02-19T00:29:22.776Z,-1.30
2019-02-19T00:31:48.936Z,-1.30
2019-02-19T00:34:15.109Z,-1.40
2019-02-19T00:36:41.307Z,-1.40
2019-02-19T00:39:07.474Z,-1.30
2019-02-19T00:41:33.928Z,-1.40
2019-02-19T00:44:00.112Z,-1.50
2019-02-19T00:46:26.255Z,-1.50
2019-02-19T00:48:52.427Z,-1.40
2019-02-19T00:51:18.621Z,-1.40
2019-02-19T00:53:44.832Z,-1.40
2019-02-19T00:56:10.999Z,-1.40
2019-02-19T00:58:37.171Z,-1.40
2019-02-19T01:01:03.323Z,-1.40
2019-02-19T01:03:29.512Z,-1.50
2019-02-19T01:05:55.687Z,-1.50
2019-02-19T01:08:22.175Z,-1.40
2019-02-19T01:10:48.339Z,-1.50
2019-02-19T01:13:14.493Z,-1.40
2019-02-19T01:15:40.663Z,-1.40
2019-02-19T01:18:06.817Z,-1.30
2019-02-19T01:20:33.011Z,-1.30
2019-02-19T01:22:59.164Z,-1.20
2019-02-19T01:25:25.324Z,-1.20
2019-02-19T01:27:51.499Z,-1.20
2019-02-19T01:30:17.650Z,-1.10
2019-02-19T01:32:43.820Z,-1.10
2019-02-19T01:35:09.989Z,-1.10
2019-02-19T01:37:36.163Z,-1.10
2019-02-19T01:40:04.523Z,-1.10
2019-02-19T01:42:30.700Z,-1.10
2019-02-19T01:44:56.855Z,-1.30
2019-02-19T01:47:25.050Z,-1.30
2019-02-19T01:49:51.306Z,-1.40
2019-02-19T01:52:17.488Z,-1.30
2019-02-19T01:54:43.639Z,-1.30
2019-02-19T01:57:09.808Z,-1.30
2019-02-19T01:59:35.965Z,-1.30
2019-02-19T02:02:02.123Z,-1.30
2019-02-19T02:04:28.320Z,-1.20
2019-02-19T02:06:54.483Z,-1.20
2019-02-19T02:09:20.669Z,-1.20
2019-02-19T02:11:46.823Z,-1.20
2019-02-19T02:14:13.020Z,-1.20
2019-02-19T02:16:39.168Z,-1.20
2019-02-19T02:19:05.329Z,-1.40
2019-02-19T02:21:31.536Z,-1.40
2019-02-19T02:23:57.699Z,-1.50
2019-02-19T02:26:23.839Z,-1.40
2019-02-19T02:28:50.007Z,-1.50
2019-02-19T02:31:16.165Z,-1.40
2019-02-19T02:33:42.458Z,-1.50
2019-02-19T02:36:08.724Z,-1.40
2019-02-19T02:38:34.925Z,-1.50
2019-02-19T02:41:02.009Z,-1.60
2019-02-19T02:43:28.208Z,-1.60
2019-02-19T02:45:54.367Z,-1.50
2019-02-19T02:48:20.693Z,-1.50
2019-02-19T02:50:46.840Z,-1.60
2019-02-19T02:53:13.004Z,-1.50
2019-02-19T02:55:39.204Z,-1.40
2019-02-19T02:58:05.359Z,-1.40
2019-02-19T03:00:31.519Z,-1.30
2019-02-19T03:02:57.707Z,-1.10
2019-02-19T03:05:25.355Z,-1.00
2019-02-19T03:07:53.643Z,-0.90
2019-02-19T03:10:19.819Z,-1.00
2019-02-19T03:12:45.991Z,-1.00
2019-02-19T03:15:12.609Z,-1.10
2019-02-19T03:17:38.785Z,-1.00
2019-02-19T03:20:06.042Z,-0.90
2019-02-19T03:22:32.210Z,-1.00
2019-02-19T03:25:00.371Z,-1.00
2019-02-19T03:27:26.818Z,-1.10
2019-02-19T03:29:52.983Z,-1.10
2019-02-19T03:32:19.242Z,-1.00
2019-02-19T03:34:45.434Z,-1.10
2019-02-19T03:37:11.604Z,-1.20
2019-02-19T03:39:37.772Z,-1.20
2019-02-19T03:42:03.954Z,-1.10
2019-02-19T03:44:30.144Z,-1.30
2019-02-19T03:46:56.316Z,-1.40
2019-02-19T03:49:22.472Z,-1.40
2019-02-19T03:51:48.643Z,-1.40
2019-02-19T03:54:14.800Z,-1.40
2019-02-19T03:56:40.994Z,-1.40
2019-02-19T03:59:07.592Z,-1.50
2019-02-19T04:01:33.754Z,-1.40
2019-02-19T04:04:00.032Z,-1.50
2019-02-19T04:06:26.191Z,-1.60
2019-02-19T04:08:52.340Z,-1.60
2019-02-19T04:11:18.531Z,-1.60
2019-02-19T04:13:44.709Z,-1.50
2019-02-19T04:16:10.864Z,-1.50
2019-02-19T04:18:40.194Z,-1.50
2019-02-19T04:21:06.425Z,-1.40
2019-02-19T04:23:32.564Z,-1.30
2019-02-19T04:25:58.779Z,-1.40
2019-02-19T04:28:25.035Z,-1.40
2019-02-19T04:30:51.213Z,-1.50
2019-02-19T04:33:17.437Z,-1.50
2019-02-19T04:35:43.616Z,-1.50
2019-02-19T04:38:09.804Z,-1.50
2019-02-19T04:40:35.972Z,-1.50
2019-02-19T04:43:02.125Z,-1.50
2019-02-19T04:45:28.311Z,-1.60
2019-02-19T04:47:56.052Z,-1.50
2019-02-19T04:50:22.208Z,-1.40
2019-02-19T04:52:48.429Z,-1.30
2019-02-19T04:55:14.583Z,-1.30
2019-02-19T04:57:40.764Z,-1.20
2019-02-19T05:00:10.245Z,-1.20
2019-02-19T05:02:36.392Z,-1.10
2019-02-19T05:05:03.793Z,-1.10
2019-02-19T05:07:29.948Z,-1.10
2019-02-19T05:09:56.104Z,-1.10
2019-02-19T05:12:22.304Z,-1.10
2019-02-19T05:14:48.464Z,-1.00
2019-02-19T05:17:16.339Z,-1.00
2019-02-19T05:19:42.697Z,-0.90
2019-02-19T05:22:08.855Z,-0.90
2019-02-19T05:24:35.029Z,-0.90
2019-02-19T05:27:01.188Z,-0.70
2019-02-19T05:29:27.357Z,-0.60
2019-02-19T05:31:53.511Z,-0.60
2019-02-19T05:34:19.681Z,-0.50
2019-02-19T05:36:45.837Z,-0.50
2019-02-19T05:39:12.004Z,-0.40
2019-02-19T05:41:38.171Z,-0.30
2019-02-19T05:44:04.372Z,-0.50
2019-02-19T05:46:30.605Z,-0.50
2019-02-19T05:48:56.839Z,-0.50
2019-02-19T05:51:23.183Z,-0.60
2019-02-19T05:53:49.332Z,-0.80
2019-02-19T05:56:15.524Z,-0.90
2019-02-19T05:58:41.678Z,-1.00
2019-02-19T06:01:07.853Z,-1.00
2019-02-19T06:03:34.004Z,-1.00
2019-02-19T06:06:00.177Z,-1.10
2019-02-19T06:08:26.326Z,-1.10
2019-02-19T06:10:52.487Z,-1.20
2019-02-19T06:13:18.647Z,-1.30
2019-02-19T06:15:44.808Z,-1.30
2019-02-19T06:18:11.043Z,-1.20
2019-02-19T06:20:37.397Z,-1.20
2019-02-19T06:23:03.595Z,-1.20
2019-02-19T06:25:29.826Z,-1.20
2019-02-19T06:27:56.176Z,-1.20
2019-02-19T06:30:22.383Z,-1.20
2019-02-19T06:32:48.564Z,-1.10
2019-02-19T06:35:14.715Z,-1.20
2019-02-19T06:37:40.883Z,-1.10
2019-02-19T06:40:24.465Z,-1.10
2019-02-19T06:42:50.504Z,-1.10
2019-02-19T06:45:16.682Z,-1.00
2019-02-19T06:47:42.839Z,-1.00
2019-02-19T06:50:09.027Z,-1.00
2019-02-19T06:52:35.183Z,-0.90
2019-02-19T06:55:01.352Z,-0.70
2019-02-19T06:57:27.503Z,-0.70
2019-02-19T06:59:53.699Z,-0.70
2019-02-19T07:02:26.160Z,-0.70
2019-02-19T07:04:52.624Z,-0.70
2019-02-19T07:07:18.796Z,-0.50
2019-02-19T07:09:44.959Z,-0.20
2019-02-19T07:12:11.136Z,0.00
2019-02-19T07:14:37.292Z,0.20
2019-02-19T07:17:03.464Z,0.40
2019-02-19T07:19:29.660Z,0.60
2019-02-19T07:21:55.811Z,1.00
2019-02-19T07:24:21.979Z,1.20
2019-02-19T07:26:48.127Z,1.50
2019-02-19T07:29:15.125Z,1.80
2019-02-19T07:31:41.419Z,2.20
2019-02-19T07:34:07.603Z,2.10
2019-02-19T07:36:33.777Z,2.40
2019-02-19T07:38:59.951Z,2.90
2019-02-19T07:41:26.149Z,3.40
2019-02-19T07:43:54.164Z,3.90
2019-02-19T07:46:20.536Z,4.30
2019-02-19T07:48:46.707Z,4.60
2019-02-19T07:51:12.883Z,5.10
2019-02-19T07:53:39.039Z,5.50
2019-02-19T07:56:05.224Z,5.90
2019-02-19T07:58:31.403Z,6.70
2019-02-19T08:00:57.626Z,7.30
2019-02-19T08:03:23.783Z,7.90
2019-02-19T08:05:49.959Z,9.70
2019-02-19T08:08:16.125Z,11.80
2019-02-19T08:10:42.313Z,13.50
2019-02-19T08:13:08.637Z,14.20
2019-02-19T08:15:34.788Z,14.60
2019-02-19T08:18:00.948Z,15.00
2019-02-19T08:20:27.130Z,16.10
2019-02-19T08:22:53.312Z,16.80
2019-02-19T08:25:19.464Z,17.00
2019-02-19T08:27:45.741Z,17.10
2019-02-19T08:30:11.889Z,15.30
2019-02-19T08:32:38.072Z,16.00
2019-02-19T08:35:05.502Z,16.30
2019-02-19T08:37:31.663Z,16.50
2019-02-19T08:40:00.759Z,15.90
2019-02-19T08:42:27.217Z,15.90
2019-02-19T08:44:53.399Z,16.60
2019-02-19T08:47:19.548Z,16.20
2019-02-19T08:49:45.736Z,16.60
2019-02-19T08:52:11.896Z,17.40
2019-02-19T08:54:38.068Z,18.60
2019-02-19T08:57:04.253Z,18.70
2019-02-19T08:59:30.418Z,19.90
2019-02-19T09:01:56.591Z,20.70
2019-02-19T09:04:23.042Z,19.60
2019-02-19T09:06:49.226Z,19.80
2019-02-19T09:09:15.400Z,18.90
2019-02-19T09:11:41.632Z,19.20
2019-02-19T09:14:07.807Z,18.60
2019-02-19T09:16:33.962Z,18.80
2019-02-19T09:19:00.135Z,19.50
2019-02-19T09:21:26.280Z,19.50
2019-02-19T09:23:52.461Z,20.30
2019-02-19T09:26:19.618Z,20.90
2019-02-19T09:28:45.793Z,21.40
2019-02-19T09:31:12.075Z,20.40
2019-02-19T09:33:38.312Z,20.20
2019-02-19T09:36:04.468Z,20.70
2019-02-19T09:38:30.631Z,21.20
2019-02-19T09:40:56.807Z,20.20
2019-02-19T09:43:22.972Z,20.10
2019-02-19T09:45:49.146Z,19.80
2019-02-19T09:48:15.322Z,20.30
2019-02-19T09:50:42.604Z,20.70
2019-02-19T09:53:08.752Z,20.80
2019-02-19T09:55:34.951Z,21.30
2019-02-19T09:58:01.113Z,21.30
2019-02-19T10:00:27.326Z,21.70
2019-02-19T10:02:53.473Z,23.00
2019-02-19T10:05:19.954Z,23.00
2019-02-19T10:07:46.148Z,22.00
2019-02-19T10:10:16.128Z,21.20
2019-02-19T10:12:42.372Z,20.90
2019-02-19T10:15:10.941Z,20.40
2019-02-19T10:17:37.112Z,19.90
2019-02-19T10:20:05.696Z,19.90
2019-02-19T10:22:31.857Z,19.50
2019-02-19T10:25:00.944Z,18.80
2019-02-19T10:27:27.156Z,19.00
2019-02-19T10:29:53.399Z,19.80
2019-02-19T10:32:19.581Z,20.20
2019-02-19T10:34:46.113Z,19.60
2019-02-19T10:37:12.331Z,19.60
2019-02-19T10:39:38.688Z,19.20
2019-02-19T10:42:04.864Z,19.00
2019-02-19T10:44:31.149Z,19.00
2019-02-19T10:46:57.364Z,19.50
2019-02-19T10:49:24.639Z,20.60
2019-02-19T10:51:50.824Z,20.40
2019-02-19T10:54:17.169Z,20.70
2019-02-19T10:56:43.644Z,20.70
2019-02-19T10:59:09.807Z,20.60
2019-02-19T11:01:36.273Z,20.10
2019-02-19T11:04:02.457Z,19.70
2019-02-19T11:06:29.025Z,20.20
2019-02-19T11:08:55.204Z,19.40
2019-02-19T11:11:21.390Z,19.70
2019-02-19T11:13:47.579Z,18.40
2019-02-19T11:16:13.789Z,18.30
2019-02-19T11:18:39.982Z,18.00
2019-02-19T11:21:06.147Z,18.50
2019-02-19T11:23:33.708Z,18.90
2019-02-19T11:26:00.094Z,18.80
2019-02-19T11:28:26.260Z,18.20
2019-02-19T11:30:52.457Z,18.10
2019-02-19T11:33:18.635Z,18.40
2019-02-19T11:35:44.830Z,19.00
2019-02-19T11:38:11.055Z,18.50
2019-02-19T11:40:37.245Z,17.20
2019-02-19T11:43:03.404Z,16.50
2019-02-19T11:45:29.608Z,16.00
2019-02-19T11:47:55.824Z,15.80
2019-02-19T11:50:21.997Z,15.40
2019-02-19T11:52:48.291Z,15.40
2019-02-19T11:55:16.887Z,15.50
2019-02-19T11:57:43.084Z,15.30
2019-02-19T12:00:13.461Z,15.10
2019-02-19T12:02:39.728Z,14.90
2019-02-19T12:05:07.005Z,14.90
2019-02-19T12:07:33.376Z,15.00
2019-02-19T12:09:59.549Z,14.80
2019-02-19T12:12:25.740Z,15.00
2019-02-19T12:14:51.916Z,14.70
2019-02-19T12:17:18.137Z,14.50
2019-02-19T12:19:45.325Z,14.60
2019-02-19T12:22:12.625Z,14.60
2019-02-19T12:24:39.478Z,14.50
2019-02-19T12:27:08.382Z,14.20
2019-02-19T12:29:33.748Z,14.30
2019-02-19T12:31:59.997Z,14.20
2019-02-19T12:34:26.195Z,14.20
2019-02-19T12:36:52.357Z,14.10
2019-02-19T12:39:18.900Z,14.10
2019-02-19T12:41:45.118Z,14.20
2019-02-19T12:44:11.289Z,14.30
2019-02-19T12:46:37.512Z,14.50
2019-02-19T12:49:03.797Z,14.50
2019-02-19T12:51:30.001Z,14.50
2019-02-19T12:53:56.352Z,14.30
2019-02-19T12:56:22.526Z,14.40
2019-02-19T12:58:48.704Z,14.60
2019-02-19T13:01:16.107Z,14.60
2019-02-19T13:03:42.509Z,14.30
2019-02-19T13:06:11.173Z,14.00
2019-02-19T13:08:37.372Z,14.10
2019-02-19T13:11:03.585Z,14.10
2019-02-19T13:13:31.657Z,14.40
2019-02-19T13:15:57.889Z,14.50
2019-02-19T13:18:24.060Z,14.70
2019-02-19T13:20:50.237Z,14.90
2019-02-19T13:23:17.250Z,14.80
2019-02-19T13:25:43.456Z,14.50
2019-02-19T13:28:09.617Z,14.40
2019-02-19T13:30:35.819Z,14.40
2019-02-19T13:33:01.985Z,14.40
2019-02-19T13:35:28.147Z,14.50
2019-02-19T13:37:54.327Z,14.60
2019-02-19T13:40:20.727Z,14.60
2019-02-19T13:42:46.964Z,14.50
2019-02-19T13:45:13.841Z,14.70
2019-02-19T13:47:40.160Z,14.70
2019-02-19T13:50:14.061Z,14.70
2019-02-19T13:52:46.696Z,14.60
2019-02-19T13:55:16.221Z,14.10
2019-02-19T13:57:43.716Z,14.10
2019-02-19T14:00:12.701Z,14.00
2019-02-19T14:02:39.263Z,13.60
2019-02-19T14:05:08.522Z,13.40
2019-02-19T14:07:36.643Z,13.30
2019-02-19T14:10:07.665Z,13.10
2019-02-19T14:12:34.043Z,13.20
2019-02-19T14:15:39.872Z,13.40
2019-02-19T14:18:07.985Z,13.60
2019-02-19T14:20:47.842Z,13.90
2019-02-19T14:23:25.077Z,14.20
2019-02-19T14:25:53.267Z,14.30
2019-02-19T14:28:21.348Z,14.30
2019-02-19T14:30:58.533Z,14.10
2019-02-19T14:33:32.462Z,14.10
2019-02-19T14:36:00.569Z,13.90
2019-02-19T14:38:31.396Z,13.80
2019-02-19T14:40:59.484Z,13.70
2019-02-19T14:43:36.681Z,13.80
2019-02-19T14:46:10.764Z,13.80
2019-02-19T14:48:38.880Z,13.60
2019-02-19T14:51:22.496Z,13.60
2019-02-19T14:53:56.741Z,13.50
2019-02-19T14:56:27.372Z,13.50
2019-02-19T14:59:01.052Z,13.60
2019-02-19T15:01:44.477Z,13.50
2019-02-19T15:04:24.435Z,13.70
2019-02-19T15:07:01.358Z,13.80
2019-02-19T15:09:29.439Z,13.60
2019-02-19T15:12:00.105Z,13.40
2019-02-19T15:14:40.053Z,13.10
2019-02-19T15:17:16.730Z,12.90
2019-02-19T15:19:47.659Z,13.00
2019-02-19T15:22:18.532Z,13.00
2019-02-19T15:24:46.629Z,13.00
2019-02-19T15:27:29.960Z,12.90
2019-02-19T15:30:03.841Z,12.90
2019-02-19T15:32:48.489Z,12.90
2019-02-19T15:35:34.821Z,12.90
2019-02-19T15:38:08.713Z,12.80
2019-02-19T15:40:36.942Z,12.80
2019-02-19T15:43:21.719Z,12.60
2019-02-19T15:46:08.061Z,12.50
2019-02-19T15:48:48.255Z,12.40
2019-02-19T15:51:22.409Z,12.20
2019-02-19T15:53:56.340Z,12.00
2019-02-19T15:56:24.442Z,12.00
2019-02-19T15:59:09.212Z,11.80
2019-02-19T16:01:43.355Z,11.70
2019-02-19T16:04:11.533Z,11.70
2019-02-19T16:06:51.493Z,11.70
2019-02-19T16:09:22.125Z,11.60
2019-02-19T16:12:02.118Z,11.60
2019-02-19T16:14:33.042Z,11.50
2019-02-19T16:17:12.940Z,11.40
2019-02-19T16:19:43.526Z,11.20
2019-02-19T16:22:14.635Z,11.00
2019-02-19T16:24:59.504Z,10.90
2019-02-19T16:27:44.324Z,10.90
2019-02-19T16:30:13.590Z,10.70
2019-02-19T16:32:42.665Z,10.60
2019-02-19T16:35:23.552Z,10.60
2019-02-19T16:37:52.011Z,10.50
2019-02-19T16:40:29.337Z,10.50
2019-02-19T16:43:13.240Z,10.40
2019-02-19T16:45:41.718Z,10.30
2019-02-19T16:48:22.513Z,10.20
2019-02-19T16:50:53.493Z,10.30
2019-02-19T16:53:21.833Z,10.30
2019-02-19T16:56:08.475Z,10.20
2019-02-19T16:58:36.772Z,10.20
2019-02-19T17:01:14.708Z,10.20
2019-02-19T17:03:49.016Z,10.10
2019-02-19T17:06:21.469Z,10.10
2019-02-19T17:08:52.592Z,10.00
2019-02-19T17:11:23.045Z,9.90
2019-02-19T17:13:58.154Z,9.90
2019-02-19T17:16:33.236Z,9.90
2019-02-19T17:19:04.157Z,9.90
2019-02-19T17:21:47.371Z,9.90
2019-02-19T17:24:18.489Z,9.80
2019-02-19T17:26:49.593Z,9.80
2019-02-19T17:29:32.770Z,9.70
2019-02-19T17:32:03.686Z,9.70
2019-02-19T17:34:40.497Z,9.60
2019-02-19T17:37:14.671Z,9.60
2019-02-19T17:39:45.525Z,9.50
2019-02-19T17:42:13.641Z,9.50
2019-02-19T17:44:50.813Z,9.50
2019-02-19T17:47:38.024Z,9.50
2019-02-19T17:50:25.897Z,9.50
2019-02-19T17:52:56.776Z,9.40
2019-02-19T17:55:42.020Z,9.40
2019-02-19T17:58:22.744Z,9.40
2019-02-19T18:01:06.872Z,9.30
2019-02-19T18:03:37.888Z,9.30
2019-02-19T18:06:18.268Z,9.30
2019-02-19T18:08:46.353Z,9.20
2019-02-19T18:11:17.229Z,9.20
2019-02-19T18:13:45.358Z,9.20
2019-02-19T18:16:28.427Z,9.20
2019-02-19T18:18:54.789Z,9.20
2019-02-19T18:21:21.012Z,9.10
2019-02-19T18:23:47.225Z,9.10
2019-02-19T18:26:13.443Z,9.10
2019-02-19T18:28:40.754Z,9.10
2019-02-19T18:31:07.930Z,9.10
2019-02-19T18:33:34.124Z,9.10
2019-02-19T18:36:00.327Z,9.10
2019-02-19T18:38:27.636Z,9.00
2019-02-19T18:40:53.815Z,9.00
2019-02-19T18:43:20.119Z,9.00
2019-02-19T18:45:46.340Z,9.00
2019-02-19T18:48:12.511Z,9.00
2019-02-19T18:50:38.779Z,9.00
2019-02-19T18:53:05.326Z,9.00
2019-02-19T18:55:31.734Z,8.90
2019-02-19T18:57:58.100Z,8.90
2019-02-19T19:00:24.300Z,8.90
2019-02-19T19:02:50.469Z,8.90
2019-02-19T19:05:16.671Z,8.90
2019-02-19T19:07:43.074Z,8.80
2019-02-19T19:10:10.281Z,8.80
2019-02-19T19:12:36.590Z,8.80
2019-02-19T19:15:05.521Z,8.80
2019-02-19T19:17:33.404Z,8.80
2019-02-19T19:19:59.633Z,8.80
2019-02-19T19:22:25.824Z,8.80
2019-02-19T19:24:51.980Z,8.70
2019-02-19T19:27:18.224Z,8.60
2019-02-19T19:29:44.382Z,8.60
2019-02-19T19:32:11.556Z,8.60
2019-02-19T19:34:37.821Z,8.70
2019-02-19T19:37:04.025Z,8.60
2019-02-19T19:39:30.510Z,8.50
2019-02-19T19:41:56.675Z,8.50
2019-02-19T19:44:24.858Z,8.50
2019-02-19T19:46:50.938Z,8.40
2019-02-19T19:49:17.140Z,8.30
2019-02-19T19:51:43.311Z,8.40
2019-02-19T19:54:09.541Z,8.40
2019-02-19T19:56:35.832Z,8.40
2019-02-19T19:59:02.087Z,8.40
2019-02-19T20:01:28.450Z,8.40
2019-02-19T20:03:54.672Z,8.40
2019-02-19T20:06:20.875Z,8.40
2019-02-19T20:08:47.246Z,8.40
2019-02-19T20:11:14.947Z,8.40
2019-02-19T20:13:41.160Z,8.40
2019-02-19T20:16:07.363Z,8.30
2019-02-19T20:18:39.062Z,8.30
2019-02-19T20:21:02.950Z,8.20
2019-02-19T20:23:29.177Z,8.20
2019-02-19T20:25:55.436Z,8.20
2019-02-19T20:28:22.740Z,8.20
2019-02-19T20:30:49.083Z,8.10
2019-02-19T20:33:15.262Z,8.10
2019-02-19T20:35:41.777Z,8.10
2019-02-19T20:38:07.964Z,8.00
2019-02-19T20:40:35.253Z,8.00
2019-02-19T20:43:01.546Z,8.00
2019-02-19T20:45:27.922Z,8.00
2019-02-19T20:47:54.421Z,7.90
2019-02-19T20:50:20.621Z,7.90
2019-02-19T20:52:48.229Z,7.90
2019-02-19T20:55:14.700Z,8.00
2019-02-19T20:57:41.000Z,8.00
2019-02-19T21:00:15.999Z,7.90
2019-02-19T21:02:44.151Z,8.00
2019-02-19T21:05:10.694Z,8.00
2019-02-19T21:07:36.989Z,7.90
2019-02-19T21:10:10.231Z,7.90
2019-02-19T21:12:37.320Z,7.90
2019-02-19T21:15:04.857Z,7.90
2019-02-19T21:17:31.299Z,7.90
2019-02-19T21:19:58.630Z,7.80
2019-02-19T21:22:24.844Z,7.80
2019-02-19T21:24:51.287Z,7.80
2019-02-19T21:27:17.637Z,7.70
2019-02-19T21:29:44.058Z,7.50
2019-02-19T21:32:10.259Z,7.50
2019-02-19T21:34:36.424Z,7.50
2019-02-19T21:37:04.180Z,7.40
2019-02-19T21:39:30.390Z,7.40
2019-02-19T21:41:56.664Z,7.40
2019-02-19T21:44:22.913Z,7.30
2019-02-19T21:46:49.292Z,7.30
2019-02-19T21:49:15.492Z,7.30
2019-02-19T21:51:41.676Z,7.20
2019-02-19T21:54:07.838Z,7.10
2019-02-19T21:56:34.025Z,7.00
2019-02-19T21:59:00.397Z,6.90
2019-02-19T22:01:27.219Z,6.80
2019-02-19T22:03:53.489Z,6.70
2019-02-19T22:06:20.192Z,6.70
2019-02-19T22:08:47.500Z,6.80
2019-02-19T22:11:13.676Z,6.70
2019-02-19T22:13:39.860Z,6.60
2019-02-19T22:16:06.122Z,6.70
2019-02-19T22:18:32.408Z,6.70
2019-02-19T22:21:04.451Z,6.80
2019-02-19T22:23:30.651Z,6.80
2019-02-19T22:25:56.894Z,6.80
2019-02-19T22:28:24.060Z,6.80
2019-02-19T22:30:50.237Z,6.70
2019-02-19T22:33:19.336Z,6.80
2019-02-19T22:35:45.510Z,6.90
2019-02-19T22:38:11.692Z,6.80
2019-02-19T22:40:37.865Z,6.70
2019-02-19T22:43:05.810Z,6.70
2019-02-19T22:45:31.984Z,6.70
2019-02-19T22:47:58.211Z,6.70
2019-02-19T22:50:25.515Z,6.60
2019-02-19T22:52:51.729Z,6.50
2019-02-19T22:55:23.059Z,6.40
2019-02-19T22:57:49.258Z,6.50
2019-02-19T23:00:38.418Z,6.50
2019-02-19T23:03:06.482Z,6.60
2019-02-19T23:05:33.288Z,6.60
2019-02-19T23:07:59.470Z,6.60
2019-02-19T23:10:26.022Z,6.40
2019-02-19T23:12:52.223Z,6.40
2019-02-19T23:15:18.392Z,6.50
2019-02-19T23:17:44.591Z,6.50
2019-02-19T23:20:10.766Z,6.50
2019-02-19T23:22:36.973Z,6.50
2019-02-19T23:25:04.372Z,6.50
2019-02-19T23:27:30.962Z,6.50
2019-02-19T23:29:58.247Z,6.50
2019-02-19T23:32:44.407Z,6.40
2019-02-19T23:35:15.266Z,6.50
2019-02-19T23:37:41.468Z,6.50
2019-02-19T23:40:07.626Z,6.50
2019-02-19T23:42:33.801Z,6.50
2019-02-19T23:44:59.978Z,6.50
2019-02-19T23:47:26.154Z,6.50
2019-02-19T23:49:52.332Z,6.60
2019-02-19T23:52:18.525Z,6.60
2019-02-19T23:54:44.714Z,6.40
2019-02-19T23:57:10.872Z,6.40
2019-02-19T23:59:37.076Z,6.40
